sensor_id;sensor_type;location;lat;lon;timestamp;pressure;altitude;pressure_sealevel;temperature;humidity
28181;BME280;15464;50.988;10.318;2023-07-20T00:02:23;98664.44;;;15.53;97.83
28181;BME280;15464;50.988;10.318;2023-07-20T00:04:50;98658.75;;;15.56;96.60
28181;BME280;15464;50.988;10.318;2023-07-20T00:07:17;98660.78;;;15.54;96.28
28181;BME280;15464;50.988;10.318;2023-07-20T00:09:43;98662.59;;;15.45;97.10
28181;BME280;15464;50.988;10.318;2023-07-20T00:12:10;98661.59;;;15.46;97.27
28181;BME280;15464;50.988;10.318;2023-07-20T00:14:37;98662.59;;;15.45;96.76
28181;BME280;15464;50.988;10.318;2023-07-20T00:17:04;98649.72;;;15.41;96.38
28181;BME280;15464;50.988;10.318;2023-07-20T00:19:31;98648.38;;;15.45;96.33
28181;BME280;15464;50.988;10.318;2023-07-20T00:21:58;98656.41;;;15.45;95.66
28181;BME280;15464;50.988;10.318;2023-07-20T00:24:25;98641.72;;;15.41;95.41
28181;BME280;15464;50.988;10.318;2023-07-20T00:26:52;98639.38;;;15.38;94.31
28181;BME280;15464;50.988;10.318;2023-07-20T00:29:19;98641.03;;;15.39;94.48
28181;BME280;15464;50.988;10.318;2023-07-20T00:31:46;98642.06;;;15.29;94.33
28181;BME280;15464;50.988;10.318;2023-07-20T00:34:14;98649.72;;;15.24;95.37
28181;BME280;15464;50.988;10.318;2023-07-20T00:36:41;98643.56;;;15.24;95.33
28181;BME280;15464;50.988;10.318;2023-07-20T00:39:08;98640.06;;;15.23;95.23
28181;BME280;15464;50.988;10.318;2023-07-20T00:41:34;98642.75;;;15.23;94.66
28181;BME280;15464;50.988;10.318;2023-07-20T00:44:02;98637.88;;;15.19;94.91
28181;BME280;15464;50.988;10.318;2023-07-20T00:46:29;98636.72;;;15.13;94.53
28181;BME280;15464;50.988;10.318;2023-07-20T00:48:56;98644.88;;;15.12;95.67
28181;BME280;15464;50.988;10.318;2023-07-20T00:51:23;98644.41;;;15.08;96.00
28181;BME280;15464;50.988;10.318;2023-07-20T00:53:52;98646.38;;;15.06;95.31
28181;BME280;15464;50.988;10.318;2023-07-20T00:56:20;98642.53;;;15.01;95.66
28181;BME280;15464;50.988;10.318;2023-07-20T00:58:47;98650.72;;;14.99;97.36
28181;BME280;15464;50.988;10.318;2023-07-20T01:01:14;98653.75;;;14.96;96.47
28181;BME280;15464;50.988;10.318;2023-07-20T01:03:41;98642.38;;;14.94;97.36
28181;BME280;15464;50.988;10.318;2023-07-20T01:09:20;98654.91;;;14.85;98.92
28181;BME280;15464;50.988;10.318;2023-07-20T01:14:31;98641.88;;;14.90;98.37
28181;BME280;15464;50.988;10.318;2023-07-20T01:16:59;98644.72;;;14.89;98.46
28181;BME280;15464;50.988;10.318;2023-07-20T01:19:26;98642.72;;;14.91;98.08
28181;BME280;15464;50.988;10.318;2023-07-20T01:22:03;98645.72;;;14.88;97.48
28181;BME280;15464;50.988;10.318;2023-07-20T01:24:56;98645.72;;;14.88;97.28
28181;BME280;15464;50.988;10.318;2023-07-20T01:28:05;98646.69;;;14.87;98.42
28181;BME280;15464;50.988;10.318;2023-07-20T01:33:09;98658.91;;;14.89;99.03
28181;BME280;15464;50.988;10.318;2023-07-20T01:35:38;98656.06;;;14.91;98.99
28181;BME280;15464;50.988;10.318;2023-07-20T01:38:08;98634.88;;;14.89;99.14
28181;BME280;15464;50.988;10.318;2023-07-20T01:40:35;98642.19;;;14.87;99.47
28181;BME280;15464;50.988;10.318;2023-07-20T01:43:03;98651.72;;;14.90;98.68
28181;BME280;15464;50.988;10.318;2023-07-20T01:45:29;98645.56;;;14.89;99.36
28181;BME280;15464;50.988;10.318;2023-07-20T01:47:56;98639.22;;;14.90;98.37
28181;BME280;15464;50.988;10.318;2023-07-20T01:50:23;98645.72;;;14.88;98.93
28181;BME280;15464;50.988;10.318;2023-07-20T01:52:50;98640.03;;;14.83;99.69
28181;BME280;15464;50.988;10.318;2023-07-20T01:55:16;98645.06;;;14.86;98.51
28181;BME280;15464;50.988;10.318;2023-07-20T01:57:43;98641.72;;;14.84;99.24
28181;BME280;15464;50.988;10.318;2023-07-20T02:00:10;98653.22;;;14.84;98.14
28181;BME280;15464;50.988;10.318;2023-07-20T02:02:38;98650.72;;;14.83;97.56
28181;BME280;15464;50.988;10.318;2023-07-20T02:05:05;98649.72;;;14.84;97.99
28181;BME280;15464;50.988;10.318;2023-07-20T02:07:32;98646.19;;;14.75;99.73
28181;BME280;15464;50.988;10.318;2023-07-20T02:09:59;98651.72;;;14.74;99.78
28181;BME280;15464;50.988;10.318;2023-07-20T02:12:26;98663.06;;;14.68;99.97
28181;BME280;15464;50.988;10.318;2023-07-20T02:14:53;98652.03;;;14.71;100.00
28181;BME280;15464;50.988;10.318;2023-07-20T02:17:19;98657.38;;;14.71;100.00
28181;BME280;15464;50.988;10.318;2023-07-20T02:19:46;98658.72;;;14.75;98.91
28181;BME280;15464;50.988;10.318;2023-07-20T02:22:16;98657.88;;;14.74;98.84
28181;BME280;15464;50.988;10.318;2023-07-20T02:24:43;98661.03;;;14.70;99.61
28181;BME280;15464;50.988;10.318;2023-07-20T02:27:10;98654.84;;;14.69;100.00
28181;BME280;15464;50.988;10.318;2023-07-20T02:29:36;98652.03;;;14.71;99.97
28181;BME280;15464;50.988;10.318;2023-07-20T02:32:04;98655.03;;;14.76;99.78
28181;BME280;15464;50.988;10.318;2023-07-20T02:34:31;98647.88;;;14.76;98.95
28181;BME280;15464;50.988;10.318;2023-07-20T02:36:57;98655.56;;;14.79;98.64
28181;BME280;15464;50.988;10.318;2023-07-20T02:39:27;98651.72;;;14.82;99.27
28181;BME280;15464;50.988;10.318;2023-07-20T02:41:54;98648.03;;;14.83;98.96
28181;BME280;15464;50.988;10.318;2023-07-20T02:44:20;98652.41;;;14.84;99.09
28181;BME280;15464;50.988;10.318;2023-07-20T02:46:47;98660.25;;;14.85;97.91
28181;BME280;15464;50.988;10.318;2023-07-20T02:49:16;98653.72;;;14.88;97.93
28181;BME280;15464;50.988;10.318;2023-07-20T02:51:43;98657.56;;;14.85;100.00
28181;BME280;15464;50.988;10.318;2023-07-20T02:54:09;98653.06;;;14.86;99.52
28181;BME280;15464;50.988;10.318;2023-07-20T02:56:36;98657.72;;;14.84;99.08
28181;BME280;15464;50.988;10.318;2023-07-20T02:59:03;98659.72;;;14.82;99.30
28181;BME280;15464;50.988;10.318;2023-07-20T03:01:30;98654.38;;;14.82;98.68
28181;BME280;15464;50.988;10.318;2023-07-20T03:03:57;98660.56;;;14.82;98.72
28181;BME280;15464;50.988;10.318;2023-07-20T03:06:24;98653.38;;;14.83;98.66
28181;BME280;15464;50.988;10.318;2023-07-20T03:08:51;98659.41;;;14.85;97.75
28181;BME280;15464;50.988;10.318;2023-07-20T03:11:20;98654.06;;;14.85;98.75
28181;BME280;15464;50.988;10.318;2023-07-20T03:13:47;98656.91;;;14.83;97.41
28181;BME280;15464;50.988;10.318;2023-07-20T03:16:17;98654.88;;;14.77;98.05
28181;BME280;15464;50.988;10.318;2023-07-20T03:18:44;98655.19;;;14.74;97.68
28181;BME280;15464;50.988;10.318;2023-07-20T03:21:11;98663.41;;;14.73;97.35
28181;BME280;15464;50.988;10.318;2023-07-20T03:23:41;98658.88;;;14.73;96.25
28181;BME280;15464;50.988;10.318;2023-07-20T03:26:08;98661.72;;;14.72;96.99
28181;BME280;15464;50.988;10.318;2023-07-20T03:28:36;98662.41;;;14.74;96.27
28181;BME280;15464;50.988;10.318;2023-07-20T03:31:04;98662.41;;;14.74;97.53
28181;BME280;15464;50.988;10.318;2023-07-20T03:33:31;98674.06;;;14.73;96.29
28181;BME280;15464;50.988;10.318;2023-07-20T03:35:58;98667.56;;;14.75;96.16
28181;BME280;15464;50.988;10.318;2023-07-20T03:38:26;98673.41;;;14.71;96.75
28181;BME280;15464;50.988;10.318;2023-07-20T03:40:55;98662.22;;;14.67;95.80
28181;BME280;15464;50.988;10.318;2023-07-20T03:43:23;98655.19;;;14.66;95.15
28181;BME280;15464;50.988;10.318;2023-07-20T03:45:50;98657.34;;;14.63;95.26
28181;BME280;15464;50.988;10.318;2023-07-20T03:48:19;98657.34;;;14.63;95.04
28181;BME280;15464;50.988;10.318;2023-07-20T03:50:47;98663.69;;;14.62;95.89
28181;BME280;15464;50.988;10.318;2023-07-20T03:53:15;98662.34;;;14.58;96.43
28181;BME280;15464;50.988;10.318;2023-07-20T03:55:49;98666.66;;;14.50;98.13
28181;BME280;15464;50.988;10.318;2023-07-20T03:58:18;98662.84;;;14.53;97.81
28181;BME280;15464;50.988;10.318;2023-07-20T04:00:46;98663.00;;;14.51;97.72
28181;BME280;15464;50.988;10.318;2023-07-20T04:03:13;98661.66;;;14.47;99.81
28181;BME280;15464;50.988;10.318;2023-07-20T04:05:40;98662.00;;;14.52;97.77
28181;BME280;15464;50.988;10.318;2023-07-20T04:08:07;98672.19;;;14.57;97.54
28181;BME280;15464;50.988;10.318;2023-07-20T04:10:34;98664.03;;;14.59;97.58
28181;BME280;15464;50.988;10.318;2023-07-20T04:13:01;98670.50;;;14.56;99.30
28181;BME280;15464;50.988;10.318;2023-07-20T04:15:28;98665.16;;;14.56;97.63
28181;BME280;15464;50.988;10.318;2023-07-20T04:17:55;98679.34;;;14.57;97.42
28181;BME280;15464;50.988;10.318;2023-07-20T04:20:23;98680.88;;;14.59;96.74
28181;BME280;15464;50.988;10.318;2023-07-20T04:22:50;98681.72;;;14.60;97.71
28181;BME280;15464;50.988;10.318;2023-07-20T04:25:20;98682.22;;;14.63;97.68
28181;BME280;15464;50.988;10.318;2023-07-20T04:27:47;98676.03;;;14.63;98.51
28181;BME280;15464;50.988;10.318;2023-07-20T04:30:16;98680.72;;;14.61;97.32
28181;BME280;15464;50.988;10.318;2023-07-20T04:32:43;98683.06;;;14.64;96.75
28181;BME280;15464;50.988;10.318;2023-07-20T04:36:02;98680.06;;;14.67;96.90
28181;BME280;15464;50.988;10.318;2023-07-20T04:38:03;98685.03;;;14.62;97.63
28181;BME280;15464;50.988;10.318;2023-07-20T04:40:30;98682.06;;;14.65;98.72
28181;BME280;15464;50.988;10.318;2023-07-20T04:42:57;98689.41;;;14.71;98.28
28181;BME280;15464;50.988;10.318;2023-07-20T04:45:24;98693.25;;;14.76;98.37
28181;BME280;15464;50.988;10.318;2023-07-20T04:47:50;98690.78;;;14.83;98.30
28181;BME280;15464;50.988;10.318;2023-07-20T04:50:17;98697.09;;;14.82;98.52
28181;BME280;15464;50.988;10.318;2023-07-20T04:52:45;98695.94;;;14.84;98.73
28181;BME280;15464;50.988;10.318;2023-07-20T04:55:12;98700.28;;;14.93;99.36
28181;BME280;15464;50.988;10.318;2023-07-20T04:57:39;98694.28;;;15.00;100.00
28181;BME280;15464;50.988;10.318;2023-07-20T05:00:06;98694.66;;;15.05;100.00
28181;BME280;15464;50.988;10.318;2023-07-20T05:02:33;98696.47;;;15.12;100.00
28181;BME280;15464;50.988;10.318;2023-07-20T05:05:00;98700.50;;;15.16;100.00
28181;BME280;15464;50.988;10.318;2023-07-20T05:07:27;98705.19;;;15.22;100.00
28181;BME280;15464;50.988;10.318;2023-07-20T05:09:54;98700.03;;;15.29;100.00
28181;BME280;15464;50.988;10.318;2023-07-20T05:12:21;98698.16;;;15.38;100.00
28181;BME280;15464;50.988;10.318;2023-07-20T05:14:47;98703.84;;;15.51;99.89
28181;BME280;15464;50.988;10.318;2023-07-20T05:17:14;98705.72;;;15.58;99.46
28181;BME280;15464;50.988;10.318;2023-07-20T05:19:41;98695.50;;;15.62;98.70
28181;BME280;15464;50.988;10.318;2023-07-20T05:22:13;98695.19;;;15.73;98.33
28181;BME280;15464;50.988;10.318;2023-07-20T05:24:40;98706.19;;;15.78;96.77
28181;BME280;15464;50.988;10.318;2023-07-20T05:27:07;98702.16;;;15.90;96.25
28181;BME280;15464;50.988;10.318;2023-07-20T05:29:34;98701.84;;;15.85;95.38
28181;BME280;15464;50.988;10.318;2023-07-20T05:32:00;98696.50;;;15.77;95.21
28181;BME280;15464;50.988;10.318;2023-07-20T05:34:27;98699.00;;;15.79;94.54
28181;BME280;15464;50.988;10.318;2023-07-20T05:36:55;98697.16;;;15.79;94.60
28181;BME280;15464;50.988;10.318;2023-07-20T05:39:21;98694.81;;;15.84;94.84
28181;BME280;15464;50.988;10.318;2023-07-20T05:41:48;98691.97;;;15.86;96.15
28181;BME280;15464;50.988;10.318;2023-07-20T05:44:15;98706.50;;;15.91;95.29
28181;BME280;15464;50.988;10.318;2023-07-20T05:46:42;98699.13;;;15.93;94.71
28181;BME280;15464;50.988;10.318;2023-07-20T05:49:22;98700.78;;;16.02;94.64
28181;BME280;15464;50.988;10.318;2023-07-20T05:51:49;98702.16;;;15.98;95.91
28181;BME280;15464;50.988;10.318;2023-07-20T05:54:16;98704.97;;;15.97;96.93
28181;BME280;15464;50.988;10.318;2023-07-20T05:56:43;98708.19;;;15.92;96.79
28181;BME280;15464;50.988;10.318;2023-07-20T05:59:09;98703.78;;;15.99;95.84
28181;BME280;15464;50.988;10.318;2023-07-20T06:01:36;98702.09;;;16.06;95.17
28181;BME280;15464;50.988;10.318;2023-07-20T06:04:03;98703.78;;;16.07;95.07
28181;BME280;15464;50.988;10.318;2023-07-20T06:06:30;98703.06;;;16.22;95.06
28181;BME280;15464;50.988;10.318;2023-07-20T06:08:57;98702.16;;;16.37;94.65
28181;BME280;15464;50.988;10.318;2023-07-20T06:11:24;98704.34;;;16.42;94.83
28181;BME280;15464;50.988;10.318;2023-07-20T06:13:51;98700.63;;;16.43;94.43
28181;BME280;15464;50.988;10.318;2023-07-20T06:16:18;98699.28;;;16.55;93.88
28181;BME280;15464;50.988;10.318;2023-07-20T06:18:45;98695.09;;;16.61;93.58
28181;BME280;15464;50.988;10.318;2023-07-20T06:21:12;98700.25;;;16.62;93.68
28181;BME280;15464;50.988;10.318;2023-07-20T06:23:39;98701.22;;;16.69;94.44
28181;BME280;15464;50.988;10.318;2023-07-20T06:26:06;98695.16;;;16.75;93.47
28181;BME280;15464;50.988;10.318;2023-07-20T06:28:34;98700.16;;;16.78;93.08
28181;BME280;15464;50.988;10.318;2023-07-20T06:31:01;98696.13;;;16.82;93.21
28181;BME280;15464;50.988;10.318;2023-07-20T06:33:28;98702.09;;;16.53;90.69
28181;BME280;15464;50.988;10.318;2023-07-20T06:35:56;98683.19;;;16.55;90.82
28181;BME280;15464;50.988;10.318;2023-07-20T06:38:23;98694.38;;;16.59;91.16
28181;BME280;15464;50.988;10.318;2023-07-20T06:40:53;98693.19;;;16.69;89.84
28181;BME280;15464;50.988;10.318;2023-07-20T06:43:20;98693.47;;;16.74;88.91
28181;BME280;15464;50.988;10.318;2023-07-20T06:45:53;98691.13;;;16.79;88.83
28181;BME280;15464;50.988;10.318;2023-07-20T06:48:21;98686.66;;;16.94;89.19
28181;BME280;15464;50.988;10.318;2023-07-20T06:50:48;98689.28;;;17.03;86.52
28181;BME280;15464;50.988;10.318;2023-07-20T06:53:15;98684.34;;;17.14;86.43
28181;BME280;15464;50.988;10.318;2023-07-20T06:55:42;98685.31;;;17.21;85.07
28181;BME280;15464;50.988;10.318;2023-07-20T06:58:10;98676.53;;;17.27;85.22
28181;BME280;15464;50.988;10.318;2023-07-20T07:00:37;98681.34;;;17.32;84.79
28181;BME280;15464;50.988;10.318;2023-07-20T07:03:03;98685.28;;;17.44;84.26
28181;BME280;15464;50.988;10.318;2023-07-20T07:05:30;98682.53;;;17.52;82.99
28181;BME280;15464;50.988;10.318;2023-07-20T07:08:00;98675.38;;;17.45;83.35
28181;BME280;15464;50.988;10.318;2023-07-20T07:10:27;98686.28;;;17.43;84.05
28181;BME280;15464;50.988;10.318;2023-07-20T07:12:53;98688.41;;;17.33;82.69
28181;BME280;15464;50.988;10.318;2023-07-20T07:15:20;98683.81;;;17.42;82.98
28181;BME280;15464;50.988;10.318;2023-07-20T07:17:47;98672.47;;;17.54;82.16
28181;BME280;15464;50.988;10.318;2023-07-20T07:20:14;98675.03;;;17.48;80.74
28181;BME280;15464;50.988;10.318;2023-07-20T07:22:44;98688.97;;;17.43;78.85
28181;BME280;15464;50.988;10.318;2023-07-20T07:25:12;98680.69;;;17.53;78.17
28181;BME280;15464;50.988;10.318;2023-07-20T07:27:39;98683.34;;;17.76;78.63
28181;BME280;15464;50.988;10.318;2023-07-20T07:30:06;98682.16;;;17.78;78.09
28181;BME280;15464;50.988;10.318;2023-07-20T07:32:33;98684.84;;;17.93;78.18
28181;BME280;15464;50.988;10.318;2023-07-20T07:35:00;98681.34;;;18.07;76.17
28181;BME280;15464;50.988;10.318;2023-07-20T07:37:27;98673.56;;;18.41;74.56
28181;BME280;15464;50.988;10.318;2023-07-20T07:39:57;98688.81;;;18.56;71.64
28181;BME280;15464;50.988;10.318;2023-07-20T07:42:23;98673.09;;;18.67;72.50
28181;BME280;15464;50.988;10.318;2023-07-20T07:44:50;98685.78;;;18.59;71.95
28181;BME280;15464;50.988;10.318;2023-07-20T07:47:17;98683.63;;;18.69;71.35
28181;BME280;15464;50.988;10.318;2023-07-20T07:49:44;98684.47;;;18.54;70.17
28181;BME280;15464;50.988;10.318;2023-07-20T07:52:12;98680.50;;;18.36;70.91
28181;BME280;15464;50.988;10.318;2023-07-20T07:54:41;98684.56;;;18.46;70.44
28181;BME280;15464;50.988;10.318;2023-07-20T07:57:07;98689.28;;;18.44;71.51
28181;BME280;15464;50.988;10.318;2023-07-20T07:59:34;98682.44;;;18.42;70.25
28181;BME280;15464;50.988;10.318;2023-07-20T08:02:04;98691.25;;;18.36;71.67
28181;BME280;15464;50.988;10.318;2023-07-20T08:04:31;98693.63;;;18.45;70.35
28181;BME280;15464;50.988;10.318;2023-07-20T08:06:59;98677.44;;;18.89;69.26
28181;BME280;15464;50.988;10.318;2023-07-20T08:09:26;98691.28;;;19.08;68.85
28181;BME280;15464;50.988;10.318;2023-07-20T08:11:53;98685.47;;;19.04;68.08
28181;BME280;15464;50.988;10.318;2023-07-20T08:14:19;98685.69;;;18.67;67.15
28181;BME280;15464;50.988;10.318;2023-07-20T08:16:46;98681.84;;;18.76;66.30
28181;BME280;15464;50.988;10.318;2023-07-20T08:19:14;98683.06;;;18.73;66.66
28181;BME280;15464;50.988;10.318;2023-07-20T08:21:41;98684.44;;;19.05;66.47
28181;BME280;15464;50.988;10.318;2023-07-20T08:24:08;98679.13;;;19.33;66.44
28181;BME280;15464;50.988;10.318;2023-07-20T08:26:34;98682.03;;;19.53;66.38
28181;BME280;15464;50.988;10.318;2023-07-20T08:29:01;98683.16;;;19.65;64.37
28181;BME280;15464;50.988;10.318;2023-07-20T08:31:29;98688.75;;;19.42;65.00
28181;BME280;15464;50.988;10.318;2023-07-20T08:33:55;98680.53;;;19.50;63.23
28181;BME280;15464;50.988;10.318;2023-07-20T08:36:23;98690.63;;;19.69;59.88
28181;BME280;15464;50.988;10.318;2023-07-20T08:38:50;98677.53;;;19.39;59.96
28181;BME280;15464;50.988;10.318;2023-07-20T08:41:18;98684.72;;;19.53;58.47
28181;BME280;15464;50.988;10.318;2023-07-20T08:43:46;98689.63;;;19.70;59.86
28181;BME280;15464;50.988;10.318;2023-07-20T08:46:13;98686.19;;;19.83;58.37
28181;BME280;15464;50.988;10.318;2023-07-20T08:48:42;98685.25;;;19.69;56.31
28181;BME280;15464;50.988;10.318;2023-07-20T08:51:10;98690.53;;;19.56;56.17
28181;BME280;15464;50.988;10.318;2023-07-20T08:53:37;98698.00;;;19.54;57.12
28181;BME280;15464;50.988;10.318;2023-07-20T08:56:05;98694.94;;;19.43;57.83
28181;BME280;15464;50.988;10.318;2023-07-20T08:58:34;98697.81;;;19.62;57.88
28181;BME280;15464;50.988;10.318;2023-07-20T09:01:01;98695.84;;;19.50;57.56
28181;BME280;15464;50.988;10.318;2023-07-20T09:03:29;98696.91;;;19.49;57.94
28181;BME280;15464;50.988;10.318;2023-07-20T09:05:55;98705.69;;;19.43;58.95
28181;BME280;15464;50.988;10.318;2023-07-20T09:08:22;98717.13;;;19.23;61.51
28181;BME280;15464;50.988;10.318;2023-07-20T09:10:49;98704.31;;;18.89;64.22
28181;BME280;15464;50.988;10.318;2023-07-20T09:13:16;98709.09;;;18.73;65.29
28181;BME280;15464;50.988;10.318;2023-07-20T09:15:53;98708.94;;;18.60;66.57
28181;BME280;15464;50.988;10.318;2023-07-20T09:18:28;98718.72;;;18.38;66.72
28181;BME280;15464;50.988;10.318;2023-07-20T09:21:00;98718.72;;;18.38;66.89
28181;BME280;15464;50.988;10.318;2023-07-20T09:23:37;98725.84;;;18.31;67.15
28181;BME280;15464;50.988;10.318;2023-07-20T09:26:11;98717.44;;;18.48;66.15
28181;BME280;15464;50.988;10.318;2023-07-20T09:28:43;98715.22;;;18.52;66.02
28181;BME280;15464;50.988;10.318;2023-07-20T09:31:17;98711.03;;;18.49;65.05
28181;BME280;15464;50.988;10.318;2023-07-20T09:33:46;98715.38;;;18.50;64.45
28181;BME280;15464;50.988;10.318;2023-07-20T09:36:15;98717.44;;;18.78;64.38
28181;BME280;15464;50.988;10.318;2023-07-20T09:39:03;98723.47;;;18.80;63.19
28181;BME280;15464;50.988;10.318;2023-07-20T09:41:40;98724.47;;;18.79;62.34
28181;BME280;15464;50.988;10.318;2023-07-20T09:44:14;98729.84;;;18.79;62.50
28181;BME280;15464;50.988;10.318;2023-07-20T09:46:48;98729.59;;;18.74;62.87
28181;BME280;15464;50.988;10.318;2023-07-20T09:49:18;98736.50;;;18.68;62.91
28181;BME280;15464;50.988;10.318;2023-07-20T09:51:48;98742.91;;;18.52;64.70
28181;BME280;15464;50.988;10.318;2023-07-20T09:54:16;98750.78;;;18.39;68.58
28181;BME280;15464;50.988;10.318;2023-07-20T09:56:44;98766.03;;;18.09;70.68
28181;BME280;15464;50.988;10.318;2023-07-20T09:59:12;98765.06;;;17.88;73.12
28181;BME280;15464;50.988;10.318;2023-07-20T10:01:41;98775.00;;;17.64;75.25
28181;BME280;15464;50.988;10.318;2023-07-20T10:04:11;98778.19;;;17.60;76.28
28181;BME280;15464;50.988;10.318;2023-07-20T10:06:42;98787.78;;;17.54;77.42
28181;BME280;15464;50.988;10.318;2023-07-20T10:09:15;98794.38;;;17.44;79.58
28181;BME280;15464;50.988;10.318;2023-07-20T10:11:45;98791.09;;;17.56;78.96
28181;BME280;15464;50.988;10.318;2023-07-20T10:14:20;98788.81;;;17.53;79.82
28181;BME280;15464;50.988;10.318;2023-07-20T10:16:51;98800.88;;;17.49;81.71
28181;BME280;15464;50.988;10.318;2023-07-20T10:19:42;98800.06;;;17.49;84.21
28181;BME280;15464;50.988;10.318;2023-07-20T10:22:25;98792.66;;;17.51;82.99
28181;BME280;15464;50.988;10.318;2023-07-20T10:24:53;98786.72;;;17.63;83.76
28181;BME280;15464;50.988;10.318;2023-07-20T10:27:20;98782.31;;;17.70;82.83
28181;BME280;15464;50.988;10.318;2023-07-20T10:29:48;98784.00;;;17.71;83.54
28181;BME280;15464;50.988;10.318;2023-07-20T10:32:15;98785.59;;;17.81;83.09
28181;BME280;15464;50.988;10.318;2023-07-20T10:34:42;98785.41;;;17.82;83.13
28181;BME280;15464;50.988;10.318;2023-07-20T10:37:09;98783.00;;;17.72;82.39
28181;BME280;15464;50.988;10.318;2023-07-20T10:39:35;98785.63;;;17.50;82.62
28181;BME280;15464;50.988;10.318;2023-07-20T10:42:12;98791.81;;;17.50;82.44
28181;BME280;15464;50.988;10.318;2023-07-20T10:44:42;98789.22;;;17.42;83.10
28181;BME280;15464;50.988;10.318;2023-07-20T10:47:12;98791.25;;;17.40;82.70
28181;BME280;15464;50.988;10.318;2023-07-20T10:49:58;98795.63;;;17.33;84.81
28181;BME280;15464;50.988;10.318;2023-07-20T10:52:26;98801.41;;;17.22;84.78
28181;BME280;15464;50.988;10.318;2023-07-20T10:55:19;98800.41;;;17.23;85.19
28181;BME280;15464;50.988;10.318;2023-07-20T10:58:24;98804.09;;;17.22;86.44
28181;BME280;15464;50.988;10.318;2023-07-20T11:01:02;98795.28;;;17.36;84.92
28181;BME280;15464;50.988;10.318;2023-07-20T11:03:31;98798.75;;;17.45;84.38
28181;BME280;15464;50.988;10.318;2023-07-20T11:09:07;98798.53;;;17.54;83.06
28181;BME280;15464;50.988;10.318;2023-07-20T11:11:38;98799.72;;;17.74;83.10
28181;BME280;15464;50.988;10.318;2023-07-20T11:14:21;98790.81;;;17.97;82.62
28181;BME280;15464;50.988;10.318;2023-07-20T11:16:50;98793.44;;;18.05;80.38
28181;BME280;15464;50.988;10.318;2023-07-20T11:19:19;98793.56;;;17.89;80.63
28181;BME280;15464;50.988;10.318;2023-07-20T11:21:51;98788.59;;;18.00;80.52
28181;BME280;15464;50.988;10.318;2023-07-20T11:24:30;98797.41;;;18.09;80.64
28181;BME280;15464;50.988;10.318;2023-07-20T11:26:58;98794.19;;;18.13;79.65
28181;BME280;15464;50.988;10.318;2023-07-20T11:29:26;98795.84;;;18.14;79.50
28181;BME280;15464;50.988;10.318;2023-07-20T11:31:59;98799.09;;;18.10;80.13
28181;BME280;15464;50.988;10.318;2023-07-20T11:34:26;98803.13;;;18.06;81.53
28181;BME280;15464;50.988;10.318;2023-07-20T11:36:54;98802.31;;;18.05;82.19
28181;BME280;15464;50.988;10.318;2023-07-20T11:39:24;98799.38;;;18.15;82.37
28181;BME280;15464;50.988;10.318;2023-07-20T11:41:56;98807.25;;;18.31;83.38
28181;BME280;15464;50.988;10.318;2023-07-20T11:44:26;98802.72;;;18.32;81.03
28181;BME280;15464;50.988;10.318;2023-07-20T11:47:04;98794.19;;;18.43;80.69
28181;BME280;15464;50.988;10.318;2023-07-20T11:49:39;98799.13;;;18.39;77.47
28181;BME280;15464;50.988;10.318;2023-07-20T11:52:08;98800.81;;;18.70;76.24
28181;BME280;15464;50.988;10.318;2023-07-20T11:54:39;98788.59;;;18.82;74.58
28181;BME280;15464;50.988;10.318;2023-07-20T11:57:19;98788.25;;;19.06;74.15
28181;BME280;15464;50.988;10.318;2023-07-20T11:59:56;98791.19;;;19.83;70.74
28181;BME280;15464;50.988;10.318;2023-07-20T12:02:28;98784.03;;;20.46;70.07
28181;BME280;15464;50.988;10.318;2023-07-20T12:04:56;98780.16;;;20.06;68.19
28181;BME280;15464;50.988;10.318;2023-07-20T12:07:27;98776.09;;;20.38;66.80
28181;BME280;15464;50.988;10.318;2023-07-20T12:10:11;98775.00;;;20.60;65.55
28181;BME280;15464;50.988;10.318;2023-07-20T12:15:19;98778.28;;;20.28;67.57
28181;BME280;15464;50.988;10.318;2023-07-20T12:17:50;98781.28;;;20.80;67.17
28181;BME280;15464;50.988;10.318;2023-07-20T12:22:56;98778.19;;;21.24;67.03
28181;BME280;15464;50.988;10.318;2023-07-20T12:25:32;98767.28;;;21.79;67.14
28181;BME280;15464;50.988;10.318;2023-07-20T12:28:15;98755.63;;;22.37;64.89
28181;BME280;15464;50.988;10.318;2023-07-20T12:30:43;98747.78;;;22.29;64.55
28181;BME280;15464;50.988;10.318;2023-07-20T12:33:11;98751.31;;;22.23;62.87
28181;BME280;15464;50.988;10.318;2023-07-20T12:35:41;98757.56;;;22.17;64.10
28181;BME280;15464;50.988;10.318;2023-07-20T12:38:07;98749.44;;;21.91;61.58
28181;BME280;15464;50.988;10.318;2023-07-20T12:40:35;98753.78;;;21.79;63.00
28181;BME280;15464;50.988;10.318;2023-07-20T12:43:03;98752.94;;;21.65;63.66
28181;BME280;15464;50.988;10.318;2023-07-20T12:45:31;98757.94;;;21.55;63.39
28181;BME280;15464;50.988;10.318;2023-07-20T12:47:58;98760.78;;;21.33;60.64
28181;BME280;15464;50.988;10.318;2023-07-20T12:50:26;98757.34;;;20.99;59.91
28181;BME280;15464;50.988;10.318;2023-07-20T12:52:53;98757.16;;;20.59;59.44
28181;BME280;15464;50.988;10.318;2023-07-20T12:55:20;98757.03;;;20.74;58.89
28181;BME280;15464;50.988;10.318;2023-07-20T12:57:47;98756.56;;;20.70;59.79
28181;BME280;15464;50.988;10.318;2023-07-20T13:00:14;98756.78;;;20.69;59.61
28181;BME280;15464;50.988;10.318;2023-07-20T13:02:42;98755.94;;;20.68;59.02
28181;BME280;15464;50.988;10.318;2023-07-20T13:05:10;98754.69;;;20.64;58.07
28181;BME280;15464;50.988;10.318;2023-07-20T13:07:37;98759.06;;;20.65;58.57
28181;BME280;15464;50.988;10.318;2023-07-20T13:10:10;98756.34;;;20.65;58.77
28181;BME280;15464;50.988;10.318;2023-07-20T13:12:37;98755.47;;;20.58;59.08
28181;BME280;15464;50.988;10.318;2023-07-20T13:15:06;98758.41;;;20.63;60.63
28181;BME280;15464;50.988;10.318;2023-07-20T13:17:34;98755.28;;;20.60;62.55